sensor_id;sensor_type;location;lat;lon;timestamp;P1;durP1;ratioP1;P2;durP2;ratioP2
22648;SDS011;11491;41.942;24.220;2022-10-16T00:01:34;40.95;;;32.58;;
22648;SDS011;11491;41.942;24.220;2022-10-16T00:04:01;39.45;;;32.10;;
22648;SDS011;11491;41.942;24.220;2022-10-16T00:06:29;40.05;;;31.58;;
22648;SDS011;11491;41.942;24.220;2022-10-16T00:08:57;39.90;;;32.90;;
22648;SDS011;11491;41.942;24.220;2022-10-16T00:11:25;40.50;;;31.70;;
22648;SDS011;11491;41.942;24.220;2022-10-16T00:13:55;41.17;;;32.13;;
22648;SDS011;11491;41.942;24.220;2022-10-16T00:16:24;39.45;;;28.35;;
22648;SDS011;11491;41.942;24.220;2022-10-16T00:18:51;36.70;;;27.48;;
22648;SDS011;11491;41.942;24.220;2022-10-16T00:21:19;34.17;;;26.42;;
22648;SDS011;11491;41.942;24.220;2022-10-16T00:23:49;32.88;;;25.13;;
22648;SDS011;11491;41.942;24.220;2022-10-16T00:26:18;34.60;;;25.40;;
22648;SDS011;11491;41.942;24.220;2022-10-16T00:28:46;28.88;;;24.02;;
22648;SDS011;11491;41.942;24.220;2022-10-16T00:31:13;28.73;;;23.40;;
22648;SDS011;11491;41.942;24.220;2022-10-16T00:33:40;31.27;;;22.88;;
22648;SDS011;11491;41.942;24.220;2022-10-16T00:36:09;30.13;;;21.33;;
22648;SDS011;11491;41.942;24.220;2022-10-16T00:38:37;26.05;;;20.10;;
22648;SDS011;11491;41.942;24.220;2022-10-16T00:41:04;27.33;;;20.33;;
22648;SDS011;11491;41.942;24.220;2022-10-16T00:43:34;28.42;;;19.92;;
22648;SDS011;11491;41.942;24.220;2022-10-16T00:46:03;29.70;;;21.45;;
22648;SDS011;11491;41.942;24.220;2022-10-16T00:48:31;25.25;;;20.38;;
22648;SDS011;11491;41.942;24.220;2022-10-16T00:50:58;28.48;;;19.63;;
22648;SDS011;11491;41.942;24.220;2022-10-16T00:53:25;26.95;;;19.83;;
22648;SDS011;11491;41.942;24.220;2022-10-16T00:55:53;28.23;;;19.88;;
22648;SDS011;11491;41.942;24.220;2022-10-16T00:58:20;23.17;;;18.33;;
22648;SDS011;11491;41.942;24.220;2022-10-16T01:00:49;24.52;;;19.20;;
22648;SDS011;11491;41.942;24.220;2022-10-16T01:03:22;22.98;;;18.13;;
22648;SDS011;11491;41.942;24.220;2022-10-16T01:05:51;23.42;;;16.60;;
22648;SDS011;11491;41.942;24.220;2022-10-16T01:08:29;21.17;;;16.92;;
22648;SDS011;11491;41.942;24.220;2022-10-16T01:11:06;19.80;;;15.23;;
22648;SDS011;11491;41.942;24.220;2022-10-16T01:13:43;19.30;;;15.38;;
22648;SDS011;11491;41.942;24.220;2022-10-16T01:16:17;19.73;;;14.32;;
22648;SDS011;11491;41.942;24.220;2022-10-16T01:18:53;19.35;;;14.25;;
22648;SDS011;11491;41.942;24.220;2022-10-16T01:21:26;17.30;;;13.48;;
22648;SDS011;11491;41.942;24.220;2022-10-16T01:23:58;14.55;;;12.30;;
22648;SDS011;11491;41.942;24.220;2022-10-16T01:26:36;17.38;;;12.25;;
22648;SDS011;11491;41.942;24.220;2022-10-16T01:29:16;18.45;;;13.10;;
22648;SDS011;11491;41.942;24.220;2022-10-16T01:31:47;18.45;;;13.88;;
22648;SDS011;11491;41.942;24.220;2022-10-16T01:34:18;23.58;;;17.88;;
22648;SDS011;11491;41.942;24.220;2022-10-16T01:36:49;24.25;;;16.33;;
22648;SDS011;11491;41.942;24.220;2022-10-16T01:39:20;24.02;;;16.00;;
22648;SDS011;11491;41.942;24.220;2022-10-16T01:41:51;21.58;;;15.07;;
22648;SDS011;11491;41.942;24.220;2022-10-16T01:44:28;18.70;;;14.98;;
22648;SDS011;11491;41.942;24.220;2022-10-16T01:46:57;19.98;;;13.80;;
22648;SDS011;11491;41.942;24.220;2022-10-16T01:49:27;18.15;;;14.48;;
22648;SDS011;11491;41.942;24.220;2022-10-16T01:51:58;21.85;;;13.95;;
22648;SDS011;11491;41.942;24.220;2022-10-16T01:54:28;17.55;;;13.95;;
22648;SDS011;11491;41.942;24.220;2022-10-16T01:56:59;17.88;;;14.80;;
22648;SDS011;11491;41.942;24.220;2022-10-16T01:59:29;21.63;;;14.70;;
22648;SDS011;11491;41.942;24.220;2022-10-16T02:01:59;20.45;;;14.25;;
22648;SDS011;11491;41.942;24.220;2022-10-16T02:04:31;19.13;;;13.45;;
22648;SDS011;11491;41.942;24.220;2022-10-16T02:07:00;18.65;;;13.50;;
22648;SDS011;11491;41.942;24.220;2022-10-16T02:09:27;16.02;;;12.60;;
22648;SDS011;11491;41.942;24.220;2022-10-16T02:11:56;17.00;;;13.18;;
22648;SDS011;11491;41.942;24.220;2022-10-16T02:14:29;19.30;;;13.68;;
22648;SDS011;11491;41.942;24.220;2022-10-16T02:16:56;16.13;;;12.07;;
22648;SDS011;11491;41.942;24.220;2022-10-16T02:19:22;16.75;;;13.10;;
22648;SDS011;11491;41.942;24.220;2022-10-16T02:21:50;21.38;;;14.05;;
22648;SDS011;11491;41.942;24.220;2022-10-16T02:24:23;17.90;;;13.60;;
22648;SDS011;11491;41.942;24.220;2022-10-16T02:27:00;17.98;;;14.10;;
22648;SDS011;11491;41.942;24.220;2022-10-16T02:29:34;18.27;;;13.90;;
22648;SDS011;11491;41.942;24.220;2022-10-16T02:32:05;20.75;;;13.43;;
22648;SDS011;11491;41.942;24.220;2022-10-16T02:34:35;19.50;;;12.88;;
22648;SDS011;11491;41.942;24.220;2022-10-16T02:37:03;17.42;;;13.15;;
22648;SDS011;11491;41.942;24.220;2022-10-16T02:39:31;26.65;;;18.05;;
22648;SDS011;11491;41.942;24.220;2022-10-16T02:41:59;19.17;;;16.65;;
22648;SDS011;11491;41.942;24.220;2022-10-16T02:44:26;21.27;;;17.35;;
22648;SDS011;11491;41.942;24.220;2022-10-16T02:46:54;24.20;;;17.20;;
22648;SDS011;11491;41.942;24.220;2022-10-16T02:49:21;20.42;;;14.60;;
22648;SDS011;11491;41.942;24.220;2022-10-16T02:51:48;24.05;;;18.45;;
22648;SDS011;11491;41.942;24.220;2022-10-16T02:54:14;30.20;;;22.30;;
22648;SDS011;11491;41.942;24.220;2022-10-16T02:56:41;32.47;;;23.98;;
22648;SDS011;11491;41.942;24.220;2022-10-16T02:59:08;28.27;;;21.23;;
22648;SDS011;11491;41.942;24.220;2022-10-16T03:01:35;29.90;;;21.05;;
22648;SDS011;11491;41.942;24.220;2022-10-16T03:04:03;25.05;;;19.42;;
22648;SDS011;11491;41.942;24.220;2022-10-16T03:06:30;26.08;;;18.55;;
22648;SDS011;11491;41.942;24.220;2022-10-16T03:08:57;26.23;;;19.23;;
22648;SDS011;11491;41.942;24.220;2022-10-16T03:11:24;24.50;;;17.55;;
22648;SDS011;11491;41.942;24.220;2022-10-16T03:13:51;23.50;;;18.25;;
22648;SDS011;11491;41.942;24.220;2022-10-16T03:16:18;26.80;;;18.30;;
22648;SDS011;11491;41.942;24.220;2022-10-16T03:18:47;22.85;;;16.05;;
22648;SDS011;11491;41.942;24.220;2022-10-16T03:21:15;24.40;;;17.48;;
22648;SDS011;11491;41.942;24.220;2022-10-16T03:23:42;21.75;;;16.02;;
22648;SDS011;11491;41.942;24.220;2022-10-16T03:26:09;22.48;;;14.90;;
22648;SDS011;11491;41.942;24.220;2022-10-16T03:28:35;18.27;;;12.98;;
22648;SDS011;11491;41.942;24.220;2022-10-16T03:31:02;20.45;;;14.43;;
22648;SDS011;11491;41.942;24.220;2022-10-16T03:33:29;24.15;;;17.00;;
22648;SDS011;11491;41.942;24.220;2022-10-16T03:35:55;20.88;;;15.65;;
22648;SDS011;11491;41.942;24.220;2022-10-16T03:38:23;25.48;;;18.05;;
22648;SDS011;11491;41.942;24.220;2022-10-16T03:40:50;27.75;;;16.20;;
22648;SDS011;11491;41.942;24.220;2022-10-16T03:43:17;24.00;;;15.73;;
22648;SDS011;11491;41.942;24.220;2022-10-16T03:45:44;26.67;;;19.25;;
22648;SDS011;11491;41.942;24.220;2022-10-16T03:48:10;21.73;;;16.63;;
22648;SDS011;11491;41.942;24.220;2022-10-16T03:50:37;25.50;;;21.55;;
22648;SDS011;11491;41.942;24.220;2022-10-16T03:53:04;23.52;;;18.60;;
22648;SDS011;11491;41.942;24.220;2022-10-16T03:55:32;26.30;;;18.00;;
22648;SDS011;11491;41.942;24.220;2022-10-16T03:57:59;25.08;;;17.35;;
22648;SDS011;11491;41.942;24.220;2022-10-16T04:00:26;28.48;;;18.90;;
22648;SDS011;11491;41.942;24.220;2022-10-16T04:02:53;28.40;;;19.95;;
22648;SDS011;11491;41.942;24.220;2022-10-16T04:05:20;28.35;;;19.10;;
22648;SDS011;11491;41.942;24.220;2022-10-16T04:07:47;23.42;;;15.48;;
22648;SDS011;11491;41.942;24.220;2022-10-16T04:10:13;33.30;;;17.67;;
22648;SDS011;11491;41.942;24.220;2022-10-16T04:12:42;27.13;;;16.27;;
22648;SDS011;11491;41.942;24.220;2022-10-16T04:15:08;30.08;;;16.30;;
22648;SDS011;11491;41.942;24.220;2022-10-16T04:17:35;50.65;;;19.17;;
22648;SDS011;11491;41.942;24.220;2022-10-16T04:20:02;85.32;;;23.50;;
22648;SDS011;11491;41.942;24.220;2022-10-16T04:22:30;61.65;;;25.58;;
22648;SDS011;11491;41.942;24.220;2022-10-16T04:24:56;64.65;;;25.73;;
22648;SDS011;11491;41.942;24.220;2022-10-16T04:27:23;84.97;;;31.95;;
22648;SDS011;11491;41.942;24.220;2022-10-16T04:29:51;107.38;;;40.05;;
22648;SDS011;11491;41.942;24.220;2022-10-16T04:32:18;127.45;;;62.88;;
22648;SDS011;11491;41.942;24.220;2022-10-16T04:34:45;151.48;;;77.15;;
22648;SDS011;11491;41.942;24.220;2022-10-16T04:37:11;117.43;;;57.80;;
22648;SDS011;11491;41.942;24.220;2022-10-16T04:39:38;86.90;;;46.78;;
22648;SDS011;11491;41.942;24.220;2022-10-16T04:42:05;58.10;;;31.17;;
22648;SDS011;11491;41.942;24.220;2022-10-16T04:44:31;120.00;;;47.92;;
22648;SDS011;11491;41.942;24.220;2022-10-16T04:47:00;174.82;;;22.77;;
22648;SDS011;11491;41.942;24.220;2022-10-16T04:49:26;60.30;;;17.95;;
22648;SDS011;11491;41.942;24.220;2022-10-16T04:51:53;117.43;;;40.75;;
22648;SDS011;11491;41.942;24.220;2022-10-16T04:54:20;98.57;;;32.35;;
22648;SDS011;11491;41.942;24.220;2022-10-16T04:56:46;67.32;;;24.38;;
22648;SDS011;11491;41.942;24.220;2022-10-16T04:59:16;109.05;;;23.65;;
22648;SDS011;11491;41.942;24.220;2022-10-16T05:01:43;69.97;;;33.72;;
22648;SDS011;11491;41.942;24.220;2022-10-16T05:04:12;84.07;;;34.80;;
22648;SDS011;11491;41.942;24.220;2022-10-16T05:06:39;92.22;;;51.13;;
22648;SDS011;11491;41.942;24.220;2022-10-16T05:09:07;99.03;;;55.95;;
22648;SDS011;11491;41.942;24.220;2022-10-16T05:11:34;111.47;;;49.85;;
22648;SDS011;11491;41.942;24.220;2022-10-16T05:14:01;90.15;;;49.78;;
22648;SDS011;11491;41.942;24.220;2022-10-16T05:16:28;75.90;;;48.03;;
22648;SDS011;11491;41.942;24.220;2022-10-16T05:18:55;88.97;;;53.78;;
22648;SDS011;11491;41.942;24.220;2022-10-16T05:21:23;100.63;;;52.10;;
22648;SDS011;11491;41.942;24.220;2022-10-16T05:23:50;82.38;;;49.83;;
22648;SDS011;11491;41.942;24.220;2022-10-16T05:26:18;86.68;;;51.05;;
22648;SDS011;11491;41.942;24.220;2022-10-16T05:28:45;155.13;;;88.03;;
22648;SDS011;11491;41.942;24.220;2022-10-16T05:31:12;108.85;;;67.15;;
22648;SDS011;11491;41.942;24.220;2022-10-16T05:33:39;101.03;;;58.15;;
22648;SDS011;11491;41.942;24.220;2022-10-16T05:36:07;215.73;;;113.63;;
22648;SDS011;11491;41.942;24.220;2022-10-16T05:38:36;89.53;;;53.65;;
22648;SDS011;11491;41.942;24.220;2022-10-16T05:41:04;91.25;;;54.53;;
22648;SDS011;11491;41.942;24.220;2022-10-16T05:43:31;63.25;;;40.22;;
22648;SDS011;11491;41.942;24.220;2022-10-16T05:45:59;79.00;;;49.58;;
22648;SDS011;11491;41.942;24.220;2022-10-16T05:48:28;79.10;;;54.08;;
22648;SDS011;11491;41.942;24.220;2022-10-16T05:50:58;179.50;;;104.75;;
22648;SDS011;11491;41.942;24.220;2022-10-16T05:53:26;158.23;;;90.18;;
22648;SDS011;11491;41.942;24.220;2022-10-16T05:55:55;146.90;;;89.50;;
22648;SDS011;11491;41.942;24.220;2022-10-16T05:58:22;163.95;;;100.65;;
22648;SDS011;11491;41.942;24.220;2022-10-16T06:00:53;130.38;;;81.43;;
22648;SDS011;11491;41.942;24.220;2022-10-16T06:03:21;72.22;;;49.08;;
22648;SDS011;11491;41.942;24.220;2022-10-16T06:05:48;54.10;;;39.45;;
22648;SDS011;11491;41.942;24.220;2022-10-16T06:08:15;40.83;;;30.60;;
22648;SDS011;11491;41.942;24.220;2022-10-16T06:10:42;33.33;;;26.00;;
22648;SDS011;11491;41.942;24.220;2022-10-16T06:13:11;48.38;;;36.55;;
22648;SDS011;11491;41.942;24.220;2022-10-16T06:15:38;52.58;;;39.58;;
22648;SDS011;11491;41.942;24.220;2022-10-16T06:18:06;54.88;;;44.17;;
22648;SDS011;11491;41.942;24.220;2022-10-16T06:20:33;37.95;;;29.30;;
22648;SDS011;11491;41.942;24.220;2022-10-16T06:23:00;45.70;;;34.40;;
22648;SDS011;11491;41.942;24.220;2022-10-16T06:25:27;38.22;;;29.63;;
22648;SDS011;11491;41.942;24.220;2022-10-16T06:27:53;38.95;;;29.58;;
22648;SDS011;11491;41.942;24.220;2022-10-16T06:30:22;30.40;;;23.55;;
22648;SDS011;11491;41.942;24.220;2022-10-16T06:32:48;41.42;;;32.15;;
22648;SDS011;11491;41.942;24.220;2022-10-16T06:35:15;39.58;;;32.58;;
22648;SDS011;11491;41.942;24.220;2022-10-16T06:37:42;58.90;;;48.47;;
22648;SDS011;11491;41.942;24.220;2022-10-16T06:40:08;67.30;;;54.83;;
22648;SDS011;11491;41.942;24.220;2022-10-16T06:42:35;42.70;;;34.28;;
22648;SDS011;11491;41.942;24.220;2022-10-16T06:45:02;38.13;;;30.40;;
22648;SDS011;11491;41.942;24.220;2022-10-16T06:47:30;44.75;;;38.85;;
22648;SDS011;11491;41.942;24.220;2022-10-16T06:49:57;33.92;;;27.42;;
22648;SDS011;11491;41.942;24.220;2022-10-16T06:52:24;34.95;;;29.05;;
22648;SDS011;11491;41.942;24.220;2022-10-16T06:54:51;34.78;;;28.75;;
22648;SDS011;11491;41.942;24.220;2022-10-16T06:57:17;35.03;;;27.95;;
22648;SDS011;11491;41.942;24.220;2022-10-16T06:59:44;38.47;;;30.42;;
22648;SDS011;11491;41.942;24.220;2022-10-16T07:02:11;45.17;;;37.67;;
22648;SDS011;11491;41.942;24.220;2022-10-16T07:04:39;41.55;;;32.50;;
22648;SDS011;11491;41.942;24.220;2022-10-16T07:07:05;36.70;;;29.75;;
22648;SDS011;11491;41.942;24.220;2022-10-16T07:09:32;34.67;;;29.38;;
22648;SDS011;11491;41.942;24.220;2022-10-16T07:11:59;21.98;;;19.15;;
22648;SDS011;11491;41.942;24.220;2022-10-16T07:14:26;46.20;;;30.30;;
22648;SDS011;11491;41.942;24.220;2022-10-16T07:16:52;41.47;;;27.17;;
22648;SDS011;11491;41.942;24.220;2022-10-16T07:19:19;27.80;;;21.35;;
22648;SDS011;11491;41.942;24.220;2022-10-16T07:21:48;24.38;;;19.67;;
22648;SDS011;11491;41.942;24.220;2022-10-16T07:24:15;18.13;;;14.65;;
22648;SDS011;11491;41.942;24.220;2022-10-16T07:26:43;18.63;;;15.07;;
22648;SDS011;11491;41.942;24.220;2022-10-16T07:29:11;28.42;;;20.80;;
22648;SDS011;11491;41.942;24.220;2022-10-16T07:31:39;25.25;;;20.38;;
22648;SDS011;11491;41.942;24.220;2022-10-16T07:34:06;16.88;;;10.95;;
22648;SDS011;11491;41.942;24.220;2022-10-16T07:36:33;14.73;;;9.13;;
22648;SDS011;11491;41.942;24.220;2022-10-16T07:39:02;18.52;;;14.48;;
22648;SDS011;11491;41.942;24.220;2022-10-16T07:41:28;18.55;;;12.23;;
22648;SDS011;11491;41.942;24.220;2022-10-16T07:43:57;10.30;;;8.55;;
22648;SDS011;11491;41.942;24.220;2022-10-16T07:46:25;20.27;;;15.65;;
22648;SDS011;11491;41.942;24.220;2022-10-16T07:48:53;11.73;;;7.60;;
22648;SDS011;11491;41.942;24.220;2022-10-16T07:51:21;7.38;;;6.50;;
22648;SDS011;11491;41.942;24.220;2022-10-16T07:53:50;10.10;;;7.43;;
22648;SDS011;11491;41.942;24.220;2022-10-16T07:56:18;13.00;;;9.75;;
22648;SDS011;11491;41.942;24.220;2022-10-16T07:58:46;29.73;;;19.23;;
22648;SDS011;11491;41.942;24.220;2022-10-16T08:01:15;52.35;;;32.58;;
22648;SDS011;11491;41.942;24.220;2022-10-16T08:03:43;23.13;;;14.65;;
22648;SDS011;11491;41.942;24.220;2022-10-16T08:06:10;16.30;;;9.00;;
22648;SDS011;11491;41.942;24.220;2022-10-16T08:08:37;43.47;;;23.88;;
22648;SDS011;11491;41.942;24.220;2022-10-16T08:11:04;29.45;;;21.77;;
22648;SDS011;11491;41.942;24.220;2022-10-16T08:13:32;21.27;;;17.20;;
22648;SDS011;11491;41.942;24.220;2022-10-16T08:15:59;15.38;;;13.40;;
22648;SDS011;11491;41.942;24.220;2022-10-16T08:18:26;14.93;;;12.27;;
22648;SDS011;11491;41.942;24.220;2022-10-16T08:20:56;12.95;;;9.73;;
22648;SDS011;11491;41.942;24.220;2022-10-16T08:23:25;14.45;;;8.30;;
22648;SDS011;11491;41.942;24.220;2022-10-16T08:25:52;20.80;;;15.52;;
22648;SDS011;11491;41.942;24.220;2022-10-16T08:28:19;9.32;;;6.90;;
22648;SDS011;11491;41.942;24.220;2022-10-16T08:30:47;24.83;;;17.00;;
22648;SDS011;11491;41.942;24.220;2022-10-16T08:33:14;8.10;;;5.95;;
22648;SDS011;11491;41.942;24.220;2022-10-16T08:35:41;10.60;;;7.88;;
22648;SDS011;11491;41.942;24.220;2022-10-16T08:38:08;10.80;;;8.48;;
22648;SDS011;11491;41.942;24.220;2022-10-16T08:40:36;8.90;;;7.30;;
22648;SDS011;11491;41.942;24.220;2022-10-16T08:43:11;12.40;;;10.02;;
22648;SDS011;11491;41.942;24.220;2022-10-16T08:45:55;10.05;;;8.18;;
22648;SDS011;11491;41.942;24.220;2022-10-16T08:48:43;12.15;;;7.75;;
22648;SDS011;11491;41.942;24.220;2022-10-16T08:51:14;8.23;;;6.15;;
22648;SDS011;11491;41.942;24.220;2022-10-16T08:53:46;9.13;;;7.53;;
22648;SDS011;11491;41.942;24.220;2022-10-16T08:56:17;8.70;;;6.60;;
22648;SDS011;11491;41.942;24.220;2022-10-16T08:58:44;9.52;;;7.85;;
22648;SDS011;11491;41.942;24.220;2022-10-16T09:01:13;8.65;;;7.75;;
22648;SDS011;11491;41.942;24.220;2022-10-16T09:03:54;6.93;;;5.25;;
22648;SDS011;11491;41.942;24.220;2022-10-16T09:06:52;8.88;;;6.65;;
22648;SDS011;11491;41.942;24.220;2022-10-16T09:09:34;9.95;;;8.77;;
22648;SDS011;11491;41.942;24.220;2022-10-16T09:12:12;10.65;;;7.40;;
22648;SDS011;11491;41.942;24.220;2022-10-16T09:17:44;10.65;;;7.03;;
22648;SDS011;11491;41.942;24.220;2022-10-16T09:20:32;7.22;;;4.30;;
22648;SDS011;11491;41.942;24.220;2022-10-16T09:23:12;10.98;;;8.25;;
22648;SDS011;11491;41.942;24.220;2022-10-16T09:25:42;9.75;;;6.22;;
22648;SDS011;11491;41.942;24.220;2022-10-16T09:28:10;9.25;;;8.35;;
22648;SDS011;11491;41.942;24.220;2022-10-16T09:30:37;6.90;;;5.30;;
22648;SDS011;11491;41.942;24.220;2022-10-16T09:33:06;9.57;;;7.68;;
22648;SDS011;11491;41.942;24.220;2022-10-16T09:35:36;5.68;;;5.07;;
22648;SDS011;11491;41.942;24.220;2022-10-16T09:38:05;12.35;;;7.15;;
22648;SDS011;11491;41.942;24.220;2022-10-16T09:40:33;8.50;;;7.53;;
22648;SDS011;11491;41.942;24.220;2022-10-16T09:43:02;21.23;;;15.80;;
22648;SDS011;11491;41.942;24.220;2022-10-16T09:45:38;13.73;;;9.48;;
22648;SDS011;11491;41.942;24.220;2022-10-16T09:48:11;16.08;;;11.75;;
22648;SDS011;11491;41.942;24.220;2022-10-16T09:50:39;14.80;;;8.15;;
22648;SDS011;11491;41.942;24.220;2022-10-16T09:53:08;11.10;;;8.38;;
22648;SDS011;11491;41.942;24.220;2022-10-16T09:55:50;12.77;;;8.90;;
22648;SDS011;11491;41.942;24.220;2022-10-16T09:58:18;8.57;;;5.18;;
22648;SDS011;11491;41.942;24.220;2022-10-16T10:00:51;11.80;;;7.93;;
22648;SDS011;11491;41.942;24.220;2022-10-16T10:03:27;7.30;;;5.53;;
22648;SDS011;11491;41.942;24.220;2022-10-16T10:06:01;7.55;;;6.80;;
22648;SDS011;11491;41.942;24.220;2022-10-16T10:08:33;7.18;;;5.72;;
22648;SDS011;11491;41.942;24.220;2022-10-16T10:11:00;8.18;;;6.28;;
22648;SDS011;11491;41.942;24.220;2022-10-16T10:13:26;9.20;;;6.60;;
22648;SDS011;11491;41.942;24.220;2022-10-16T10:15:53;5.93;;;4.68;;
22648;SDS011;11491;41.942;24.220;2022-10-16T10:18:21;8.00;;;5.85;;
22648;SDS011;11491;41.942;24.220;2022-10-16T10:20:58;7.40;;;4.35;;
22648;SDS011;11491;41.942;24.220;2022-10-16T10:23:26;9.70;;;6.40;;
22648;SDS011;11491;41.942;24.220;2022-10-16T10:25:56;11.07;;;6.18;;
22648;SDS011;11491;41.942;24.220;2022-10-16T10:31:13;8.73;;;7.10;;
22648;SDS011;11491;41.942;24.220;2022-10-16T10:33:44;9.30;;;5.90;;
22648;SDS011;11491;41.942;24.220;2022-10-16T10:36:20;7.55;;;5.45;;
22648;SDS011;11491;41.942;24.220;2022-10-16T10:38:54;9.38;;;8.07;;
22648;SDS011;11491;41.942;24.220;2022-10-16T10:41:39;8.63;;;7.72;;
22648;SDS011;11491;41.942;24.220;2022-10-16T10:44:28;9.60;;;6.70;;
22648;SDS011;11491;41.942;24.220;2022-10-16T10:47:05;5.22;;;4.13;;
22648;SDS011;11491;41.942;24.220;2022-10-16T10:49:43;6.32;;;4.05;;
22648;SDS011;11491;41.942;24.220;2022-10-16T10:52:26;11.48;;;8.90;;
22648;SDS011;11491;41.942;24.220;2022-10-16T10:55:08;15.82;;;9.48;;
22648;SDS011;11491;41.942;24.220;2022-10-16T10:57:43;17.63;;;11.95;;
22648;SDS011;11491;41.942;24.220;2022-10-16T11:00:20;7.28;;;5.20;;
22648;SDS011;11491;41.942;24.220;2022-10-16T11:02:55;6.57;;;4.85;;
22648;SDS011;11491;41.942;24.220;2022-10-16T11:05:38;6.13;;;3.85;;
22648;SDS011;11491;41.942;24.220;2022-10-16T11:08:11;6.82;;;4.05;;
22648;SDS011;11491;41.942;24.220;2022-10-16T11:10:47;6.80;;;4.03;;
22648;SDS011;11491;41.942;24.220;2022-10-16T11:13:21;4.70;;;3.47;;
22648;SDS011;11491;41.942;24.220;2022-10-16T11:15:56;4.47;;;2.97;;
22648;SDS011;11491;41.942;24.220;2022-10-16T11:18:26;5.13;;;4.18;;
22648;SDS011;11491;41.942;24.220;2022-10-16T11:21:02;5.57;;;5.00;;
22648;SDS011;11491;41.942;24.220;2022-10-16T11:23:35;11.57;;;9.27;;
22648;SDS011;11491;41.942;24.220;2022-10-16T11:26:09;10.32;;;6.10;;
22648;SDS011;11491;41.942;24.220;2022-10-16T11:28:42;12.02;;;7.53;;
22648;SDS011;11491;41.942;24.220;2022-10-16T11:31:13;10.65;;;7.68;;
22648;SDS011;11491;41.942;24.220;2022-10-16T11:33:46;9.43;;;5.50;;
22648;SDS011;11491;41.942;24.220;2022-10-16T11:36:19;9.23;;;3.92;;
22648;SDS011;11491;41.942;24.220;2022-10-16T11:38:52;6.53;;;4.28;;
22648;SDS011;11491;41.942;24.220;2022-10-16T11:41:27;11.10;;;7.45;;
22648;SDS011;11491;41.942;24.220;2022-10-16T11:44:09;5.78;;;3.95;;
22648;SDS011;11491;41.942;24.220;2022-10-16T11:46:46;6.72;;;4.82;;
22648;SDS011;11491;41.942;24.220;2022-10-16T11:49:19;8.48;;;5.13;;
22648;SDS011;11491;41.942;24.220;2022-10-16T11:51:51;5.50;;;3.95;;
22648;SDS011;11491;41.942;24.220;2022-10-16T11:54:28;5.18;;;3.55;;
22648;SDS011;11491;41.942;24.220;2022-10-16T11:57:02;8.88;;;3.88;;
22648;SDS011;11491;41.942;24.220;2022-10-16T11:59:36;6.13;;;3.83;;
22648;SDS011;11491;41.942;24.220;2022-10-16T12:02:19;6.82;;;3.42;;
22648;SDS011;11491;41.942;24.220;2022-10-16T12:05:05;5.35;;;4.00;;
22648;SDS011;11491;41.942;24.220;2022-10-16T12:07:41;4.70;;;4.10;;
22648;SDS011;11491;41.942;24.220;2022-10-16T12:10:22;4.60;;;3.50;;
22648;SDS011;11491;41.942;24.220;2022-10-16T12:12:51;5.90;;;4.57;;
22648;SDS011;11491;41.942;24.220;2022-10-16T12:15:19;8.55;;;5.15;;
22648;SDS011;11491;41.942;24.220;2022-10-16T12:17:48;7.10;;;4.90;;
22648;SDS011;11491;41.942;24.220;2022-10-16T12:20:20;5.68;;;3.03;;
22648;SDS011;11491;41.942;24.220;2022-10-16T12:22:52;5.95;;;4.35;;
22648;SDS011;11491;41.942;24.220;2022-10-16T12:25:22;7.18;;;5.65;;
22648;SDS011;11491;41.942;24.220;2022-10-16T12:27:56;7.80;;;5.53;;
22648;SDS011;11491;41.942;24.220;2022-10-16T12:30:26;6.00;;;4.10;;
22648;SDS011;11491;41.942;24.220;2022-10-16T12:32:57;5.43;;;3.95;;
22648;SDS011;11491;41.942;24.220;2022-10-16T12:35:27;4.43;;;4.03;;
22648;SDS011;11491;41.942;24.220;2022-10-16T12:38:04;8.15;;;5.03;;
22648;SDS011;11491;41.942;24.220;2022-10-16T12:40:34;5.78;;;4.47;;
22648;SDS011;11491;41.942;24.220;2022-10-16T12:43:13;7.20;;;4.13;;
22648;SDS011;11491;41.942;24.220;2022-10-16T12:45:59;6.72;;;5.38;;
22648;SDS011;11491;41.942;24.220;2022-10-16T12:48:27;6.47;;;4.05;;
22648;SDS011;11491;41.942;24.220;2022-10-16T12:50:55;5.10;;;4.22;;
22648;SDS011;11491;41.942;24.220;2022-10-16T12:53:22;4.65;;;3.30;;
22648;SDS011;11491;41.942;24.220;2022-10-16T12:55:57;6.57;;;4.43;;
22648;SDS011;11491;41.942;24.220;2022-10-16T12:58:40;5.05;;;4.28;;
22648;SDS011;11491;41.942;24.220;2022-10-16T13:01:19;5.10;;;4.20;;
22648;SDS011;11491;41.942;24.220;2022-10-16T13:04:10;5.95;;;4.22;;
22648;SDS011;11491;41.942;24.220;2022-10-16T13:07:03;9.20;;;6.88;;
22648;SDS011;11491;41.942;24.220;2022-10-16T13:09:49;6.57;;;5.70;;
22648;SDS011;11491;41.942;24.220;2022-10-16T13:12:35;7.85;;;6.10;;
22648;SDS011;11491;41.942;24.220;2022-10-16T13:15:27;12.68;;;6.55;;
22648;SDS011;11491;41.942;24.220;2022-10-16T13:18:05;9.48;;;6.75;;
22648;SDS011;11491;41.942;24.220;2022-10-16T13:20:47;10.05;;;9.05;;
22648;SDS011;11491;41.942;24.220;2022-10-16T13:23:25;14.20;;;12.43;;
22648;SDS011;11491;41.942;24.220;2022-10-16T13:26:00;8.95;;;7.88;;
22648;SDS011;11491;41.942;24.220;2022-10-16T13:28:40;5.32;;;4.82;;
22648;SDS011;11491;41.942;24.220;2022-10-16T13:31:10;6.15;;;5.55;;
22648;SDS011;11491;41.942;24.220;2022-10-16T13:33:43;8.57;;;5.68;;
22648;SDS011;11491;41.942;24.220;2022-10-16T13:36:18;13.82;;;11.68;;
22648;SDS011;11491;41.942;24.220;2022-10-16T13:38:47;6.72;;;5.40;;
22648;SDS011;11491;41.942;24.220;2022-10-16T13:41:15;8.18;;;5.85;;
22648;SDS011;11491;41.942;24.220;2022-10-16T13:43:45;5.40;;;3.13;;
22648;SDS011;11491;41.942;24.220;2022-10-16T13:46:16;9.98;;;6.28;;
22648;SDS011;11491;41.942;24.220;2022-10-16T13:48:45;4.88;;;3.75;;
22648;SDS011;11491;41.942;24.220;2022-10-16T13:51:23;10.60;;;4.72;;
22648;SDS011;11491;41.942;24.220;2022-10-16T13:53:51;5.30;;;4.35;;
22648;SDS011;11491;41.942;24.220;2022-10-16T13:56:19;5.28;;;4.25;;
22648;SDS011;11491;41.942;24.220;2022-10-16T13:58:58;7.05;;;5.45;;
22648;SDS011;11491;41.942;24.220;2022-10-16T14:01:27;4.68;;;2.83;;
22648;SDS011;11491;41.942;24.220;2022-10-16T14:04:00;6.25;;;5.65;;
22648;SDS011;11491;41.942;24.220;2022-10-16T14:06:29;6.28;;;5.28;;
22648;SDS011;11491;41.942;24.220;2022-10-16T14:08:58;4.90;;;4.40;;
22648;SDS011;11491;41.942;24.220;2022-10-16T14:11:27;6.75;;;3.80;;
22648;SDS011;11491;41.942;24.220;2022-10-16T14:13:54;7.13;;;6.07;;
22648;SDS011;11491;41.942;24.220;2022-10-16T14:16:23;8.60;;;5.13;;
22648;SDS011;11491;41.942;24.220;2022-10-16T14:18:55;9.65;;;5.95;;
22648;SDS011;11491;41.942;24.220;2022-10-16T14:21:24;9.55;;;6.90;;
22648;SDS011;11491;41.942;24.220;2022-10-16T14:23:51;11.25;;;6.28;;
22648;SDS011;11491;41.942;24.220;2022-10-16T14:26:20;6.32;;;4.75;;
22648;SDS011;11491;41.942;24.220;2022-10-16T14:28:49;7.35;;;6.47;;
22648;SDS011;11491;41.942;24.220;2022-10-16T14:31:30;9.13;;;6.30;;
22648;SDS011;11491;41.942;24.220;2022-10-16T14:33:58;21.38;;;16.38;;
22648;SDS011;11491;41.942;24.220;2022-10-16T14:36:26;13.02;;;11.73;;
22648;SDS011;11491;41.942;24.220;2022-10-16T14:38:57;12.15;;;9.88;;
22648;SDS011;11491;41.942;24.220;2022-10-16T14:41:27;6.82;;;5.70;;